シュトゥットガルト の空港の天気 - METARとTAF

シュトゥットガルト空港 ( EDDS / STR ) - ドイツ シュトゥットガルト
飛行場実況気象(Metar)
観測時間07/20 14:20 CEST (07/20 12:20 UTC)
風向・風速西南西 8m/s 瞬間風速15m/s
視程10km以上
天気現象
なし
気温32℃
湿度28%
気圧1015hPa
METAREDDS 201220Z 25015G29KT 200V280 CAVOK 32/11 Q1015 NOSIG
過去の天気等 Google飛行場航空写真 Wunderground天気予報

過去48時間のMETAR

飛行場予報(TAF)
発表時間: 7/20 13:00 CEST (7/20 11:00 UTC)
予報対象時間: 20日14時 CEST ~ 21日14時 CEST
風向・風速南西 4m/s
視程10km以上
なし
20日15時 CEST ~ 20日18時 CEST に一時的に
風向・風速西南西 8m/s 瞬間風速 13m/s
20日18時 CEST ~ 21日8時 CEST に 確率 30% で一時的に
風向・風速西南西 8m/s 瞬間風速 15m/s
天気現象雷雨
全天の4割程度の積乱雲 雲底高度 1070m
20日21時 CEST ~ 20日24時 CEST に徐々に
風向・風速南西 2m/s
21日11時 CEST ~ 21日14時 CEST に徐々に
風向・風速西 4m/s
TAF EDDS 201100Z 2012/2112 23008KT CAVOK
TEMPO 2013/2016 25015G25KT
PROB30 TEMPO 2016/2106 25015G30KT TSRA SCT035CB
BECMG 2019/2022 23003KT
BECMG 2109/2112 28008KT